createdAt,value
2023-02-13T00:01:08.331Z,102424.84
2023-02-13T00:03:44.436Z,102417.95
2023-02-13T00:06:17.862Z,102423.19
2023-02-13T00:08:52.714Z,102418.12
2023-02-13T00:11:24.303Z,102411.48
2023-02-13T00:13:55.948Z,102399.87
2023-02-13T00:16:28.695Z,102402.58
2023-02-13T00:19:04.091Z,102408.92
2023-02-13T00:21:38.763Z,102402.00
2023-02-13T00:24:16.803Z,102403.44
2023-02-13T00:26:47.657Z,102398.23
2023-02-13T00:29:18.300Z,102388.30
2023-02-13T00:31:49.029Z,102401.36
2023-02-13T00:34:21.371Z,102395.54
2023-02-13T00:36:52.405Z,102392.43
2023-02-13T00:39:22.994Z,102393.75
2023-02-13T00:41:53.565Z,102390.90
2023-02-13T00:44:24.184Z,102394.75
2023-02-13T00:46:54.813Z,102375.83
2023-02-13T00:49:28.858Z,102374.64
2023-02-13T00:51:59.452Z,102379.59
2023-02-13T00:54:29.979Z,102385.87
2023-02-13T00:57:00.517Z,102384.84
2023-02-13T00:59:31.076Z,102387.31
2023-02-13T01:02:02.693Z,102384.92
2023-02-13T01:04:33.462Z,102382.27
2023-02-13T01:07:04.004Z,102380.59
2023-02-13T01:09:34.468Z,102384.03
2023-02-13T01:12:05.025Z,102382.37
2023-02-13T01:14:35.903Z,102378.74
2023-02-13T01:17:06.967Z,102387.32
2023-02-13T01:19:37.857Z,102393.60
2023-02-13T01:22:10.413Z,102381.53
2023-02-13T01:24:40.860Z,102385.64
2023-02-13T01:27:11.711Z,102367.45
2023-02-13T01:29:42.725Z,102358.16
2023-02-13T01:32:13.710Z,102367.28
2023-02-13T01:34:44.233Z,102372.00
2023-02-13T01:37:15.191Z,102373.34
2023-02-13T01:39:45.820Z,102374.44
2023-02-13T01:42:19.665Z,102371.18
2023-02-13T01:44:55.022Z,102372.45
2023-02-13T01:47:45.202Z,102367.83
2023-02-13T01:50:24.433Z,102371.03
2023-02-13T01:53:00.393Z,102358.45
2023-02-13T01:55:32.649Z,102361.59
2023-02-13T01:58:09.098Z,102359.32
2023-02-13T02:00:40.890Z,102361.97
2023-02-13T02:03:14.385Z,102356.47
2023-02-13T02:05:45.531Z,102360.38
2023-02-13T02:08:18.039Z,102359.23
2023-02-13T02:10:48.637Z,102350.05
2023-02-13T02:13:21.986Z,102355.21
2023-02-13T02:15:53.371Z,102343.72
2023-02-13T02:18:25.596Z,102353.20
2023-02-13T02:21:16.936Z,102355.00
2023-02-13T02:24:21.534Z,102354.09
2023-02-13T02:26:54.908Z,102347.70
2023-02-13T02:29:44.787Z,102351.45
2023-02-13T02:32:47.285Z,102356.14
2023-02-13T02:35:38.703Z,102350.28
2023-02-13T02:38:20.949Z,102357.02
2023-02-13T02:41:06.500Z,102353.34
2023-02-13T02:43:56.283Z,102356.47
2023-02-13T02:46:32.394Z,102366.63
2023-02-13T02:49:32.873Z,102366.31
2023-02-13T02:52:18.708Z,102363.53
2023-02-13T02:55:08.471Z,102369.82
2023-02-13T02:58:05.114Z,102360.38
2023-02-13T03:00:56.561Z,102361.06
2023-02-13T03:03:46.554Z,102369.18
2023-02-13T03:09:28.792Z,102359.37
2023-02-13T03:12:19.450Z,102366.01
2023-02-13T03:14:50.579Z,102361.70
2023-02-13T03:17:39.163Z,102357.83
2023-02-13T03:20:36.624Z,102359.30
2023-02-13T03:23:22.256Z,102362.01
2023-02-13T03:26:02.877Z,102353.00
2023-02-13T03:28:57.151Z,102355.98
2023-02-13T03:31:42.511Z,102350.28
2023-02-13T03:34:16.053Z,102355.89
2023-02-13T03:37:23.259Z,102354.12
2023-02-13T03:40:08.663Z,102352.34
2023-02-13T03:42:47.996Z,102350.05
2023-02-13T03:45:43.444Z,102366.81
2023-02-13T03:48:33.801Z,102360.59
2023-02-13T03:51:06.614Z,102371.27
2023-02-13T03:53:39.887Z,102372.57
2023-02-13T03:56:30.742Z,102375.70
2023-02-13T03:59:16.539Z,102373.08
2023-02-13T04:01:56.191Z,102365.52
2023-02-13T04:04:29.731Z,102372.57
2023-02-13T04:07:03.166Z,102378.67
2023-02-13T04:09:37.249Z,102377.02
2023-02-13T04:12:22.946Z,102370.80
2023-02-13T04:15:19.414Z,102376.06
2023-02-13T04:18:02.335Z,102374.80
2023-02-13T04:20:33.947Z,102379.80
2023-02-13T04:23:10.645Z,102376.69
2023-02-13T04:25:43.994Z,102382.37
2023-02-13T04:28:14.873Z,102392.64
2023-02-13T04:30:45.442Z,102389.72
2023-02-13T04:33:16.073Z,102379.65
2023-02-13T04:35:46.602Z,102376.27
2023-02-13T04:38:17.881Z,102378.85
2023-02-13T04:40:48.680Z,102384.53
2023-02-13T04:43:19.429Z,102389.53
2023-02-13T04:45:53.610Z,102388.80
2023-02-13T04:48:24.169Z,102386.89
2023-02-13T04:50:55.522Z,102391.53
2023-02-13T04:53:26.804Z,102389.87
2023-02-13T04:55:57.319Z,102389.17
2023-02-13T04:58:27.876Z,102385.87
2023-02-13T05:00:59.860Z,102390.20
2023-02-13T05:03:31.026Z,102383.38
2023-02-13T05:06:02.001Z,102379.72
2023-02-13T05:08:32.516Z,102382.41
2023-02-13T05:11:03.070Z,102384.37
2023-02-13T05:13:34.040Z,102383.38
2023-02-13T05:16:06.071Z,102389.28
2023-02-13T05:18:36.946Z,102381.75
2023-02-13T05:21:26.180Z,102375.21
2023-02-13T05:23:56.841Z,102377.52
2023-02-13T05:26:27.345Z,102377.48
2023-02-13T05:29:15.539Z,102384.64
2023-02-13T05:31:50.453Z,102374.47
2023-02-13T05:34:22.747Z,102384.98
2023-02-13T05:36:53.568Z,102381.23
2023-02-13T05:39:24.432Z,102382.75
2023-02-13T05:41:54.899Z,102376.38
2023-02-13T05:44:26.698Z,102381.65
2023-02-13T05:46:57.631Z,102383.66
2023-02-13T05:49:28.249Z,102384.49
2023-02-13T05:51:58.806Z,102388.55
2023-02-13T05:54:29.366Z,102388.22
2023-02-13T05:57:00.933Z,102389.63
2023-02-13T05:59:31.616Z,102380.66
2023-02-13T06:02:03.802Z,102382.95
2023-02-13T06:04:34.244Z,102388.19
2023-02-13T06:07:04.806Z,102386.02
2023-02-13T06:09:36.373Z,102389.00
2023-02-13T06:12:07.348Z,102390.28
2023-02-13T06:14:38.030Z,102390.66
2023-02-13T06:17:08.515Z,102394.98
2023-02-13T06:19:38.953Z,102405.58
2023-02-13T06:22:09.501Z,102399.55
2023-02-13T06:24:39.973Z,102397.34
2023-02-13T06:27:10.834Z,102407.50
2023-02-13T06:29:41.468Z,102410.38
2023-02-13T06:32:11.902Z,102395.94
2023-02-13T06:34:42.383Z,102400.25
2023-02-13T06:37:13.990Z,102397.01
2023-02-13T06:39:44.602Z,102393.41
2023-02-13T06:42:15.438Z,102398.27
2023-02-13T06:44:46.002Z,102398.59
2023-02-13T06:47:16.519Z,102410.94
2023-02-13T06:49:46.976Z,102406.22
2023-02-13T06:52:18.642Z,102411.99
2023-02-13T06:54:50.751Z,102411.09
2023-02-13T06:57:21.269Z,102415.50
2023-02-13T06:59:51.758Z,102410.40
2023-02-13T07:02:22.232Z,102416.02
2023-02-13T07:04:52.993Z,102409.66
2023-02-13T07:07:25.234Z,102405.81
2023-02-13T07:09:55.889Z,102413.86
2023-02-13T07:12:27.813Z,102399.09
2023-02-13T07:14:58.303Z,102398.76
2023-02-13T07:17:28.796Z,102407.70
2023-02-13T07:19:59.488Z,102412.43
2023-02-13T07:22:31.761Z,102406.98
2023-02-13T07:25:02.830Z,102418.22
2023-02-13T07:27:33.321Z,102416.09
2023-02-13T07:30:03.992Z,102408.69
2023-02-13T07:32:34.622Z,102407.46
2023-02-13T07:35:05.909Z,102407.20
2023-02-13T07:37:36.635Z,102413.53
2023-02-13T07:40:08.551Z,102414.36
2023-02-13T07:42:40.058Z,102420.95
2023-02-13T07:45:12.136Z,102417.95
2023-02-13T07:47:44.102Z,102419.77
2023-02-13T07:50:15.113Z,102411.45
2023-02-13T07:52:45.563Z,102408.81
2023-02-13T07:55:17.824Z,102411.28
2023-02-13T07:57:48.262Z,102404.98
2023-02-13T08:00:20.133Z,102398.49
2023-02-13T08:02:51.719Z,102413.00
2023-02-13T08:05:22.414Z,102412.50
2023-02-13T08:07:53.870Z,102410.92
2023-02-13T08:10:42.482Z,102405.99
2023-02-13T08:13:15.715Z,102410.19
2023-02-13T08:15:47.322Z,102410.46
2023-02-13T08:18:19.714Z,102407.23
2023-02-13T08:20:51.413Z,102406.29
2023-02-13T08:23:25.171Z,102398.26
2023-02-13T08:25:57.454Z,102395.89
2023-02-13T08:28:29.338Z,102394.09
2023-02-13T08:31:00.430Z,102383.31
2023-02-13T08:33:32.304Z,102388.70
2023-02-13T08:36:05.134Z,102387.85
2023-02-13T08:38:35.795Z,102388.97
2023-02-13T08:41:06.678Z,102390.08
2023-02-13T08:43:37.141Z,102386.37
2023-02-13T08:46:08.456Z,102389.30
2023-02-13T08:48:39.260Z,102384.37
2023-02-13T08:51:12.124Z,102388.73
2023-02-13T08:53:43.270Z,102389.83
2023-02-13T08:56:14.086Z,102380.88
2023-02-13T08:58:45.029Z,102375.97
2023-02-13T09:01:16.904Z,102385.55
2023-02-13T09:03:47.446Z,102379.55
2023-02-13T09:06:18.005Z,102379.87
2023-02-13T09:08:48.555Z,102386.44
2023-02-13T09:11:20.074Z,102366.22
2023-02-13T09:13:56.940Z,102373.19
2023-02-13T09:16:27.504Z,102375.95
2023-02-13T09:18:58.104Z,102373.42
2023-02-13T09:21:28.866Z,102361.50
2023-02-13T09:23:59.605Z,102365.36
2023-02-13T09:26:30.247Z,102371.36
2023-02-13T09:29:00.716Z,102363.13
2023-02-13T09:31:31.433Z,102369.59
2023-02-13T09:34:02.264Z,102367.02
2023-02-13T09:36:33.745Z,102369.89
2023-02-13T09:39:04.247Z,102375.91
2023-02-13T09:41:37.639Z,102368.39
2023-02-13T09:44:35.229Z,102362.89
2023-02-13T09:47:17.745Z,102369.10
2023-02-13T09:49:57.307Z,102382.45
2023-02-13T09:52:30.668Z,102384.14
2023-02-13T09:55:02.512Z,102372.13
2023-02-13T09:57:39.098Z,102388.09
2023-02-13T10:00:18.830Z,102383.19
2023-02-13T10:02:58.425Z,102387.59
2023-02-13T10:05:58.937Z,102371.17
2023-02-13T10:08:53.993Z,102373.58
2023-02-13T10:11:45.587Z,102369.31
2023-02-13T10:14:21.887Z,102367.60
2023-02-13T10:16:55.523Z,102370.32
2023-02-13T10:19:47.000Z,102362.81
2023-02-13T10:22:20.913Z,102369.27
2023-02-13T10:25:00.410Z,102373.11
2023-02-13T10:27:36.714Z,102387.00
2023-02-13T10:30:22.658Z,102381.84
2023-02-13T10:33:21.866Z,102379.25
2023-02-13T10:36:15.026Z,102380.03
2023-02-13T10:39:03.578Z,102359.23
2023-02-13T10:41:41.517Z,102359.37
2023-02-13T10:44:26.908Z,102360.02
2023-02-13T10:47:21.671Z,102358.03
2023-02-13T10:50:04.421Z,102362.23
2023-02-13T10:52:41.005Z,102369.47
2023-02-13T10:55:17.409Z,102345.75
2023-02-13T10:58:12.451Z,102364.99
2023-02-13T11:00:52.094Z,102373.96
2023-02-13T11:03:27.224Z,102373.96
2023-02-13T11:06:01.708Z,102355.52
2023-02-13T11:08:36.990Z,102353.09
2023-02-13T11:11:27.052Z,102359.27
2023-02-13T11:14:21.474Z,102357.41
2023-02-13T11:17:05.412Z,102357.41
2023-02-13T11:19:42.009Z,102353.45
2023-02-13T11:22:15.046Z,102364.27
2023-02-13T11:24:48.417Z,102331.54
2023-02-13T11:27:22.326Z,102331.54
2023-02-13T11:29:56.505Z,102355.77
2023-02-13T11:32:29.356Z,102334.53
2023-02-13T11:35:03.169Z,102334.53
2023-02-13T11:37:33.732Z,102350.08
2023-02-13T11:40:07.353Z,102345.93
2023-02-13T11:42:38.618Z,102326.34
2023-02-13T11:45:24.160Z,102326.34
2023-02-13T11:47:57.153Z,102326.73
2023-02-13T11:50:35.264Z,102563.98
2023-02-13T11:53:08.691Z,102321.73
2023-02-13T11:55:42.886Z,102321.73
2023-02-13T11:58:19.024Z,102349.93
2023-02-13T12:00:49.825Z,102324.38
2023-02-13T12:03:29.312Z,102324.38
2023-02-13T12:06:18.672Z,102344.07
2023-02-13T12:08:52.200Z,102344.07
2023-02-13T12:11:40.425Z,102495.82
2023-02-13T12:14:13.888Z,102345.09
2023-02-13T12:16:47.618Z,102345.09
2023-02-13T12:19:23.841Z,102342.31
2023-02-13T12:22:00.057Z,102313.12
2023-02-13T12:24:40.600Z,102313.12
2023-02-13T12:27:33.740Z,102309.95
2023-02-13T12:30:07.241Z,102321.03
2023-02-13T12:32:50.387Z,102316.32
2023-02-13T12:35:43.158Z,102298.42
2023-02-13T12:38:32.832Z,102283.55
2023-02-13T12:41:24.600Z,102283.55
2023-02-13T12:44:10.338Z,102265.60
2023-02-13T12:46:59.159Z,102286.29
2023-02-13T12:49:49.371Z,102285.01
2023-02-13T12:52:28.625Z,102279.08
2023-02-13T12:55:05.227Z,102272.09
2023-02-13T12:57:41.635Z,102275.45
2023-02-13T13:00:39.748Z,102270.52
2023-02-13T13:03:18.917Z,102270.52
2023-02-13T13:06:03.525Z,102279.21
2023-02-13T13:08:56.332Z,102273.84
2023-02-13T13:11:51.173Z,102280.89
2023-02-13T13:14:40.877Z,102287.60
2023-02-13T13:17:17.370Z,102288.92
2023-02-13T13:20:09.797Z,102291.91
2023-02-13T13:22:58.378Z,102271.81
2023-02-13T13:25:34.800Z,102272.95
2023-02-13T13:28:08.563Z,102275.34
2023-02-13T13:30:42.377Z,102282.46
2023-02-13T13:33:19.061Z,102272.62
2023-02-13T13:36:10.453Z,102267.31
2023-02-13T13:38:44.027Z,102285.17
2023-02-13T13:41:35.187Z,102275.62
2023-02-13T13:44:37.558Z,102271.38
2023-02-13T13:47:34.462Z,102268.78
2023-02-13T13:50:07.166Z,102268.78
2023-02-13T13:52:38.881Z,102283.89
2023-02-13T13:55:12.247Z,102272.20
2023-02-13T13:57:45.846Z,102273.76
2023-02-13T14:00:19.320Z,102268.41
2023-02-13T14:03:01.769Z,102261.22
2023-02-13T14:05:34.274Z,102268.08
2023-02-13T14:08:07.866Z,102281.14
2023-02-13T14:10:41.258Z,102285.58
2023-02-13T14:13:13.216Z,102281.13
2023-02-13T14:15:46.737Z,102295.17
2023-02-13T14:18:20.418Z,102272.91
2023-02-13T14:20:54.033Z,102290.88
2023-02-13T14:23:39.812Z,102287.87
2023-02-13T14:26:19.357Z,102294.00
2023-02-13T14:28:55.529Z,102299.85
2023-02-13T14:31:31.717Z,102300.41
2023-02-13T14:34:18.423Z,102307.69
2023-02-13T14:36:52.938Z,102306.91
2023-02-13T14:39:29.383Z,102305.08
2023-02-13T14:42:02.559Z,102294.90
2023-02-13T14:44:38.691Z,102288.98
2023-02-13T14:47:15.141Z,102289.38
2023-02-13T14:49:47.097Z,102290.67
2023-02-13T14:52:29.712Z,102288.10
2023-02-13T14:55:06.081Z,102288.10
2023-02-13T14:57:46.159Z,102276.55
2023-02-13T15:00:28.846Z,102279.05
2023-02-13T15:03:08.396Z,102278.00
2023-02-13T15:05:40.436Z,102268.95
2023-02-13T15:08:16.570Z,102269.93
2023-02-13T15:10:49.934Z,102261.77
2023-02-13T15:13:28.311Z,102265.55
2023-02-13T15:16:11.096Z,102266.92
2023-02-13T15:18:48.163Z,102259.80
2023-02-13T15:21:22.002Z,102242.95
2023-02-13T15:23:58.214Z,102246.27
2023-02-13T15:26:29.790Z,102256.09
2023-02-13T15:29:11.388Z,102254.98
2023-02-13T15:31:38.919Z,102250.69
2023-02-13T15:34:25.195Z,102262.91
2023-02-13T15:36:57.820Z,102249.49
2023-02-13T15:39:31.428Z,102247.39
2023-02-13T15:42:04.348Z,102245.17
2023-02-13T15:44:38.367Z,102240.85
2023-02-13T15:47:20.948Z,102237.55
2023-02-13T15:49:52.331Z,102240.45
2023-02-13T15:52:34.625Z,102231.14
2023-02-13T15:55:05.876Z,102214.38
2023-02-13T15:57:36.806Z,102214.38
2023-02-13T16:00:10.544Z,102236.67
2023-02-13T16:02:47.925Z,102239.34
2023-02-13T16:05:32.537Z,102245.31
2023-02-13T16:07:54.774Z,102252.39
2023-02-13T16:10:36.651Z,102259.99
2023-02-13T16:13:08.946Z,102262.27
2023-02-13T16:15:39.757Z,102263.77
2023-02-13T16:18:15.861Z,102263.04
2023-02-13T16:20:46.636Z,102255.54
2023-02-13T16:23:21.828Z,102268.48
2023-02-13T16:25:53.246Z,102258.55
2023-02-13T16:28:27.514Z,102258.24
2023-02-13T16:31:01.549Z,102248.62
2023-02-13T16:33:37.647Z,102262.06
2023-02-13T16:36:14.369Z,102255.85
2023-02-13T16:38:50.373Z,102257.19
2023-02-13T16:41:25.960Z,102256.75
2023-02-13T16:44:04.178Z,102253.79
2023-02-13T16:46:40.272Z,102253.06
2023-02-13T16:49:13.767Z,102252.48
2023-02-13T16:51:56.791Z,102263.27
2023-02-13T16:54:50.110Z,102264.13
2023-02-13T16:57:23.787Z,102271.72
2023-02-13T16:59:57.314Z,102269.77
2023-02-13T17:02:40.096Z,102271.78
2023-02-13T17:05:14.318Z,102265.81
2023-02-13T17:07:51.420Z,102266.46
2023-02-13T17:10:27.574Z,102275.00
2023-02-13T17:13:02.978Z,102271.92
2023-02-13T17:15:34.056Z,102260.37
2023-02-13T17:18:05.486Z,102254.27
2023-02-13T17:20:37.953Z,102257.76
2023-02-13T17:23:11.036Z,102259.06
2023-02-13T17:25:42.934Z,102256.25
2023-02-13T17:28:19.415Z,102249.41
2023-02-13T17:30:53.301Z,102247.37
2023-02-13T17:33:27.016Z,102254.13
2023-02-13T17:35:58.158Z,102251.92
2023-02-13T17:38:28.866Z,102258.43
2023-02-13T17:41:01.680Z,102248.01
2023-02-13T17:43:32.363Z,102246.09
2023-02-13T17:46:03.536Z,102241.62
2023-02-13T17:48:34.705Z,102247.52
2023-02-13T17:51:05.824Z,102253.06
2023-02-13T17:53:36.884Z,102267.42
2023-02-13T17:56:07.381Z,102260.16
2023-02-13T17:58:38.025Z,102260.02
2023-02-13T18:01:10.619Z,102269.38
2023-02-13T18:03:41.304Z,102259.47
2023-02-13T18:06:14.873Z,102272.41
2023-02-13T18:08:45.371Z,102282.42
2023-02-13T18:11:16.480Z,102277.56
2023-02-13T18:13:48.767Z,102282.81
2023-02-13T18:16:19.366Z,102290.58
2023-02-13T18:18:49.930Z,102291.48
2023-02-13T18:21:25.088Z,102289.98
2023-02-13T18:23:56.031Z,102275.34
2023-02-13T18:26:26.738Z,102282.79
2023-02-13T18:28:57.305Z,102287.87
2023-02-13T18:31:28.044Z,102291.30
2023-02-13T18:33:59.228Z,102290.23
2023-02-13T18:36:30.048Z,102301.72
2023-02-13T18:39:01.949Z,102302.43
2023-02-13T18:41:32.633Z,102305.06
2023-02-13T18:44:03.186Z,102316.30
2023-02-13T18:46:33.948Z,102313.74
2023-02-13T18:49:05.513Z,102316.12
2023-02-13T18:51:36.299Z,102316.55
2023-02-13T18:54:07.753Z,102310.52
2023-02-13T18:56:38.440Z,102314.36
2023-02-13T18:59:09.037Z,102313.48
2023-02-13T19:01:40.249Z,102317.33
2023-02-13T19:04:13.074Z,102320.78
2023-02-13T19:06:45.724Z,102319.36
2023-02-13T19:09:16.432Z,102319.69
2023-02-13T19:11:48.959Z,102331.53
2023-02-13T19:14:20.065Z,102326.88
2023-02-13T19:16:51.975Z,102335.39
2023-02-13T19:19:22.496Z,102326.24
2023-02-13T19:21:54.105Z,102324.33
2023-02-13T19:24:24.699Z,102324.86
2023-02-13T19:26:56.578Z,102323.73
2023-02-13T19:29:28.551Z,102323.91
2023-02-13T19:31:59.231Z,102329.48
2023-02-13T19:34:31.181Z,102318.72
2023-02-13T19:37:01.967Z,102332.77
2023-02-13T19:39:32.658Z,102322.14
2023-02-13T19:42:03.324Z,102322.75
2023-02-13T19:44:33.834Z,102331.03
2023-02-13T19:47:04.376Z,102323.66
2023-02-13T19:49:35.305Z,102336.34
2023-02-13T19:52:05.908Z,102333.16
2023-02-13T19:54:36.901Z,102326.64
2023-02-13T19:57:07.458Z,102337.32
2023-02-13T19:59:38.119Z,102336.20
2023-02-13T20:02:10.170Z,102346.06
2023-02-13T20:04:42.321Z,102337.80
2023-02-13T20:07:13.023Z,102340.46
2023-02-13T20:09:45.113Z,102327.70
2023-02-13T20:12:15.603Z,102333.09
2023-02-13T20:14:46.521Z,102321.33
2023-02-13T20:17:18.009Z,102333.26
2023-02-13T20:19:54.508Z,102332.03
2023-02-13T20:22:24.971Z,102343.74
2023-02-13T20:24:55.768Z,102346.31
2023-02-13T20:27:26.603Z,102341.80
2023-02-13T20:30:06.310Z,102355.20
2023-02-13T20:32:29.716Z,102355.33
2023-02-13T20:35:00.406Z,102358.95
2023-02-13T20:37:31.727Z,102351.52
2023-02-13T20:40:02.477Z,102355.45
2023-02-13T20:42:35.252Z,102365.04
2023-02-13T20:45:06.496Z,102369.09
2023-02-13T20:47:37.125Z,102363.09
2023-02-13T20:50:08.763Z,102366.31
2023-02-13T20:52:39.501Z,102362.77
2023-02-13T20:55:10.552Z,102368.09
2023-02-13T20:57:41.064Z,102370.88
2023-02-13T21:00:13.728Z,102374.70
2023-02-13T21:02:45.097Z,102364.47
2023-02-13T21:05:16.898Z,102363.28
2023-02-13T21:07:49.107Z,102370.18
2023-02-13T21:10:21.130Z,102360.31
2023-02-13T21:12:52.078Z,102369.72
2023-02-13T21:15:22.877Z,102372.72
2023-02-13T21:17:53.380Z,102372.72
2023-02-13T21:20:23.908Z,102368.45
2023-02-13T21:22:55.266Z,102378.47
2023-02-13T21:25:26.128Z,102374.88
2023-02-13T21:27:57.857Z,102370.58
2023-02-13T21:30:28.507Z,102381.27
2023-02-13T21:32:59.282Z,102368.52
2023-02-13T21:35:29.986Z,102369.33
2023-02-13T21:38:00.589Z,102369.90
2023-02-13T21:40:31.154Z,102374.60
2023-02-13T21:43:01.778Z,102365.94
2023-02-13T21:45:32.585Z,102373.00
2023-02-13T21:48:03.250Z,102367.28
2023-02-13T21:50:33.719Z,102362.92
2023-02-13T21:53:04.254Z,102359.92
2023-02-13T21:55:35.036Z,102356.64
2023-02-13T21:58:05.585Z,102357.95
2023-02-13T22:00:37.522Z,102359.62
2023-02-13T22:03:08.054Z,102352.80
2023-02-13T22:05:41.414Z,102352.20
2023-02-13T22:08:11.883Z,102360.75
2023-02-13T22:10:42.464Z,102368.01
2023-02-13T22:13:12.945Z,102372.69
2023-02-13T22:15:43.714Z,102364.17
2023-02-13T22:18:15.179Z,102364.12
2023-02-13T22:20:45.861Z,102367.58
2023-02-13T22:23:16.494Z,102374.56
2023-02-13T22:25:51.985Z,102364.11
2023-02-13T22:28:22.854Z,102373.28
2023-02-13T22:30:53.923Z,102363.30
2023-02-13T22:33:24.776Z,102369.11
2023-02-13T22:35:55.433Z,102373.05
2023-02-13T22:38:25.944Z,102378.31
2023-02-13T22:40:57.666Z,102370.98
2023-02-13T22:43:29.529Z,102378.06
2023-02-13T22:46:15.322Z,102364.50
2023-02-13T22:48:47.012Z,102359.05
2023-02-13T22:51:20.495Z,102347.12
2023-02-13T22:53:53.029Z,102345.80
2023-02-13T22:56:24.608Z,102351.75
2023-02-13T22:58:58.620Z,102356.00
2023-02-13T23:01:30.558Z,102362.46
2023-02-13T23:04:01.386Z,102359.53
2023-02-13T23:06:33.605Z,102364.08
2023-02-13T23:09:04.160Z,102361.02
2023-02-13T23:11:52.571Z,102368.20
2023-02-13T23:14:26.810Z,102361.79
2023-02-13T23:17:15.166Z,102362.42
2023-02-13T23:19:45.934Z,102373.44
2023-02-13T23:22:16.545Z,102371.01
2023-02-13T23:24:48.364Z,102375.66
2023-02-13T23:27:19.025Z,102374.19
2023-02-13T23:29:49.779Z,102376.79
2023-02-13T23:32:20.577Z,102375.19
2023-02-13T23:34:51.294Z,102375.54
2023-02-13T23:37:21.904Z,102371.78
2023-02-13T23:39:52.377Z,102372.45
2023-02-13T23:42:22.863Z,102373.19
2023-02-13T23:44:53.352Z,102366.55
2023-02-13T23:47:23.860Z,102368.52
2023-02-13T23:49:54.343Z,102360.59
2023-02-13T23:52:24.863Z,102366.69
2023-02-13T23:54:55.347Z,102371.17
2023-02-13T23:57:25.912Z,102374.60
2023-02-13T23:59:56.369Z,102374.08
